Svanen — LKXK — position and weather

sailwx.info

Track history (hours):
 
Tides and Currents Weather Stations Pressure Air Temp Water Temp Dewpoint Dewpoint Depression Visibility Wind Speed Wind Dir Waves Ship Positions

Svanen (Norway)

Ship's website: http://www.svanen.no/english/english.php1

Last reported at 2017-Aug-20 20:29 UTC. Time now 2017-Aug-20 20:41 UTC.
Position N 59°54' E 010°42'.

Length 27 m; draft 2.8 m.

Type: Sailing vessel. MMSI: 259173000.

Date/timePositionNaut miles runAvg speedWind from/ knotsBaromVisibWave heightAir tempDewpointWater temp
2017-Aug-20 20:29N 59°54' E 010°42'0 0.0
2017-Aug-20 19:58N 59°54' E 010°42'0 0.0
2017-Aug-20 19:28N 59°54' E 010°42'0 0.0
2017-Aug-20 18:58N 59°54' E 010°42'0 0.0
2017-Aug-20 18:29N 59°54' E 010°42'0 0.0
2017-Aug-20 17:56N 59°54' E 010°42'0 0.0
2017-Aug-20 17:29N 59°54' E 010°42'0 0.0
2017-Aug-20 16:59N 59°54' E 010°42'0 0.0
2017-Aug-20 16:29N 59°54' E 010°42'0 0.0
2017-Aug-20 15:58N 59°54' E 010°42'0 0.0
2017-Aug-20 15:29N 59°54' E 010°42'0 0.0
2017-Aug-20 14:59N 59°54' E 010°42'0 0.0
2017-Aug-20 14:29N 59°54' E 010°42'0 0.0
2017-Aug-20 13:58N 59°54' E 010°42'0 0.0
2017-Aug-20 13:29N 59°54' E 010°42'0 0.0
2017-Aug-20 12:59N 59°54' E 010°42'0 0.0
2017-Aug-20 12:29N 59°54' E 010°42'0 0.0
2017-Aug-20 11:58N 59°54' E 010°42'0 0.0
2017-Aug-20 11:29N 59°54' E 010°42'0 0.0
2017-Aug-20 10:59N 59°54' E 010°42'0 0.0
2017-Aug-20 10:28N 59°54' E 010°42'0 0.0
2017-Aug-20 09:59N 59°54' E 010°42'0 0.0
2017-Aug-20 09:29N 59°54' E 010°42'0 0.0
2017-Aug-20 08:59N 59°54' E 010°42'0 0.0
2017-Aug-20 08:28N 59°54' E 010°42'0 0.0
2017-Aug-20 07:59N 59°54' E 010°42'0 0.0
2017-Aug-20 07:28N 59°54' E 010°42'0 0.0
2017-Aug-20 06:59N 59°54' E 010°42'0 0.0
2017-Aug-20 06:29N 59°54' E 010°42'0 0.0
2017-Aug-20 05:59N 59°54' E 010°42'0 0.0
2017-Aug-20 05:29N 59°54' E 010°42'0 0.0
2017-Aug-20 04:58N 59°54' E 010°42'0 0.0
2017-Aug-20 04:29N 59°54' E 010°42'0 0.0
2017-Aug-20 03:56N 59°54' E 010°42'0 0.0
2017-Aug-20 03:28N 59°54' E 010°42'0 0.0
2017-Aug-20 02:59N 59°54' E 010°42'0 0.0
2017-Aug-20 02:29N 59°54' E 010°42'0 0.0
2017-Aug-20 01:59N 59°54' E 010°42'0 0.0
2017-Aug-20 01:29N 59°54' E 010°42'0 0.0
2017-Aug-20 00:59N 59°54' E 010°42'0 0.0
2017-Aug-20 00:29N 59°54' E 010°42'0 0.0
2017-Aug-19 23:59N 59°54' E 010°42'0 0.0
2017-Aug-19 23:28N 59°54' E 010°42'0 0.0
2017-Aug-19 22:59N 59°54' E 010°42'0 0.0
2017-Aug-19 22:28N 59°54' E 010°42'0 0.0
2017-Aug-19 21:59N 59°54' E 010°42'0 0.0
2017-Aug-19 21:29N 59°54' E 010°42'0 0.0
2017-Aug-19 20:59N 59°54' E 010°42'0 0.0
2017-Aug-19 20:29N 59°54' E 010°42'0 0.0
2017-Aug-19 19:58N 59°54' E 010°42'0 0.0
2017-Aug-19 19:28N 59°54' E 010°42'0 0.0
2017-Aug-19 18:59N 59°54' E 010°42'0 0.0
2017-Aug-19 18:29N 59°54' E 010°42'0 0.0
2017-Aug-19 17:59N 59°54' E 010°42'0 0.0
2017-Aug-19 17:28N 59°54' E 010°42'0 0.0
2017-Aug-19 16:59N 59°54' E 010°42'0 0.0
2017-Aug-19 16:30N 59°54' E 010°42'2 4.5
2017-Aug-19 16:00N 59°52' E 010°39'4 7.8
2017-Aug-19 15:30N 59°49' E 010°36'4 8.2
2017-Aug-19 15:00N 59°45' E 010°35'5 5.4
2017-Aug-19 14:00N 59°40' E 010°36'3 6.4
2017-Aug-19 13:30N 59°37' E 010°38'3 6.5
2017-Aug-19 13:00N 59°33' E 010°38'3 5.8
2017-Aug-19 12:30N 59°31' E 010°37'3 5.2
2017-Aug-19 12:00N 59°28' E 010°36'2 4.7
2017-Aug-19 11:30N 59°26' E 010°33'2 4.2
2017-Aug-19 11:00N 59°24' E 010°32'2 4.5
2017-Aug-19 10:30N 59°22' E 010°33'2 4.6
2017-Aug-19 10:00N 59°20' E 010°34'2 3.5
2017-Aug-19 09:30N 59°18' E 010°33'2 4.3
2017-Aug-19 09:00N 59°16' E 010°32'3 6.1
2017-Aug-19 08:30N 59°13' E 010°30'4 7.4
2017-Aug-19 08:00N 59°10' E 010°28'2 4.8
2017-Aug-19 07:30N 59°10' E 010°23'3 6.6
2017-Aug-19 07:00N 59°06' E 010°22'4 7.7
2017-Aug-19 06:30N 59°03' E 010°21'4 7.5
2017-Aug-19 06:00N 59°01' E 010°15'4 6.8
2017-Aug-19 05:29N 58°60' E 010°08'3 5.8
2017-Aug-19 04:59N 58°60' E 010°02'0 0.0
2017-Aug-19 04:29N 58°60' E 010°02'0 0.0
2017-Aug-19 03:59N 58°60' E 010°02'0 0.0
2017-Aug-19 03:29N 58°60' E 010°02'0 0.0
2017-Aug-19 02:59N 58°60' E 010°02'0 0.0
2017-Aug-19 02:23N 58°60' E 010°02'0 0.0
2017-Aug-19 01:59N 58°60' E 010°02'0 0.0
2017-Aug-19 01:29N 58°60' E 010°02'0 0.0
2017-Aug-19 00:56N 58°60' E 010°02'0 0.0
2017-Aug-19 00:28N 58°60' E 010°02'0 0.0
2017-Aug-18 23:59N 58°60' E 010°02'0 0.0
2017-Aug-18 23:26N 58°60' E 010°02'0 0.0
2017-Aug-18 22:59N 58°60' E 010°02'0 0.0
2017-Aug-18 22:23N 58°60' E 010°02'0 0.0
2017-Aug-18 21:59N 58°60' E 010°02'0 0.0
2017-Aug-18 21:28N 58°60' E 010°02'0 0.0
2017-Aug-18 20:56N 58°60' E 010°02'0 0.0
2017-Aug-18 20:29N 58°60' E 010°02'0 0.0
2017-Aug-18 19:59N 58°60' E 010°02'0 0.0
2017-Aug-18 19:28N 58°60' E 010°02'0 0.0
2017-Aug-18 18:56N 58°60' E 010°02'0 0.0
2017-Aug-18 18:29N 58°60' E 010°02'0 0.0
2017-Aug-18 17:50N 58°60' E 010°02'0 0.0
2017-Aug-18 17:19N 58°60' E 010°02'0 0.0
2017-Aug-18 16:58N 58°60' E 010°02'0 0.0
2017-Aug-18 16:26N 58°60' E 010°02'0 0.0
2017-Aug-18 15:53N 58°60' E 010°02'0 0.0
2017-Aug-18 15:29N 58°60' E 010°02'1 1.8
2017-Aug-18 14:56N 58°59' E 010°03'2 4.5
2017-Aug-18 14:30N 58°57' E 010°03'4 3.3
2017-Aug-18 13:22N 58°55' E 009°57'1 3.2
2017-Aug-18 12:54N 58°54' E 009°54'3 6.1
2017-Aug-18 12:25N 58°53' E 009°49'17 6.5
2017-Aug-18 09:50N 58°45' E 009°21'2 6.0
2017-Aug-18 09:26N 58°44' E 009°17'1 0.1
2017-Aug-17 16:51N 58°43' E 009°15'2 6.4
2017-Aug-17 16:30N 58°41' E 009°15'3 6.9
2017-Aug-17 15:59N 58°39' E 009°09'2 5.0
2017-Aug-17 15:30N 58°38' E 009°05'3 6.8
2017-Aug-17 15:00N 58°35' E 009°02'4 7.2
2017-Aug-17 14:30N 58°32' E 008°58'3 5.4
2017-Aug-17 14:00N 58°30' E 008°54'3 5.1
2017-Aug-17 13:30N 58°29' E 008°50'2 4.4
2017-Aug-17 12:59N 58°27' E 008°46'0 0.3
2017-Aug-17 12:29N 58°27' E 008°46'0 0.0
2017-Aug-17 12:00N 58°27' E 008°46'0 0.0
2017-Aug-17 11:30N 58°27' E 008°46'0 0.0
2017-Aug-17 11:00N 58°27' E 008°46'0 0.0
2017-Aug-17 10:30N 58°27' E 008°46'0 0.0
2017-Aug-17 09:59N 58°27' E 008°46'0 0.0
2017-Aug-17 09:29N 58°27' E 008°46'0 0.0
2017-Aug-17 09:00N 58°27' E 008°46'0 0.0
2017-Aug-17 08:30N 58°27' E 008°46'0 0.0
2017-Aug-17 08:00N 58°27' E 008°46'0 0.0
2017-Aug-17 07:30N 58°27' E 008°46'0 0.0
2017-Aug-17 07:00N 58°27' E 008°46'0 0.0
2017-Aug-17 06:29N 58°27' E 008°46'0 0.0
2017-Aug-17 05:59N 58°27' E 008°46'0 0.0
2017-Aug-17 05:30N 58°27' E 008°46'0 0.0
2017-Aug-17 05:00N 58°27' E 008°46'0 0.0
2017-Aug-17 04:30N 58°27' E 008°46'0 0.0
2017-Aug-17 04:00N 58°27' E 008°46'0 0.0
2017-Aug-17 03:29N 58°27' E 008°46'0 0.0
2017-Aug-17 03:00N 58°27' E 008°46'0 0.0
2017-Aug-17 02:30N 58°27' E 008°46'0 0.0
2017-Aug-17 01:59N 58°27' E 008°46'0 0.0
2017-Aug-17 01:29N 58°27' E 008°46'0 0.0
2017-Aug-17 01:00N 58°27' E 008°46'0 0.0
2017-Aug-17 00:30N 58°27' E 008°46'0 0.0
2017-Aug-16 23:59N 58°27' E 008°46'0 0.0
2017-Aug-16 23:29N 58°27' E 008°46'0 0.0
2017-Aug-16 23:00N 58°27' E 008°46'0 0.0
2017-Aug-16 22:30N 58°27' E 008°46'0 0.0
2017-Aug-16 21:59N 58°27' E 008°46'0 0.0
2017-Aug-16 21:29N 58°27' E 008°46'0 0.0
2017-Aug-16 20:59N 58°27' E 008°46'0 0.0
2017-Aug-16 20:29N 58°27' E 008°46'0 0.0
2017-Aug-16 19:59N 58°27' E 008°46'0 0.0
2017-Aug-16 19:30N 58°27' E 008°46'0 0.0
2017-Aug-16 19:00N 58°27' E 008°46'0 0.0
2017-Aug-16 18:30N 58°27' E 008°46'0 0.0
2017-Aug-16 18:00N 58°27' E 008°46'0 0.0
2017-Aug-16 17:30N 58°27' E 008°46'0 0.0
2017-Aug-16 16:59N 58°27' E 008°46'0 0.0
2017-Aug-16 16:30N 58°27' E 008°46'0 0.0
2017-Aug-16 16:00N 58°27' E 008°46'0 0.0
2017-Aug-16 15:29N 58°27' E 008°46'0 0.0
2017-Aug-16 15:00N 58°27' E 008°46'0 0.0
2017-Aug-16 14:29N 58°27' E 008°46'0 0.0
2017-Aug-16 14:00N 58°27' E 008°46'0 0.0
2017-Aug-16 13:29N 58°27' E 008°46'0 0.0
2017-Aug-16 13:00N 58°27' E 008°46'0 0.0
2017-Aug-16 12:29N 58°27' E 008°46'0 0.0
2017-Aug-16 11:59N 58°27' E 008°46'0 0.0
2017-Aug-16 11:30N 58°27' E 008°46'0 0.0
2017-Aug-16 11:00N 58°27' E 008°46'0 0.0
2017-Aug-16 10:30N 58°27' E 008°46'0 0.0
2017-Aug-16 10:00N 58°27' E 008°46'0 0.0
2017-Aug-16 09:30N 58°27' E 008°46'0 0.0
2017-Aug-16 08:59N 58°27' E 008°46'0 0.0
2017-Aug-16 08:30N 58°27' E 008°46'0 0.0
2017-Aug-16 07:59N 58°27' E 008°46'0 0.0
2017-Aug-16 07:29N 58°27' E 008°46'0 0.0
2017-Aug-16 07:00N 58°27' E 008°46'0 0.0
2017-Aug-16 06:29N 58°27' E 008°46'0 0.0
2017-Aug-16 05:59N 58°27' E 008°46'0 0.0
2017-Aug-16 05:30N 58°27' E 008°46'0 0.0
2017-Aug-16 05:00N 58°27' E 008°46'0 0.0
2017-Aug-16 04:30N 58°27' E 008°46'0 0.0
2017-Aug-16 04:00N 58°27' E 008°46'0 0.0
2017-Aug-16 03:30N 58°27' E 008°46'0 0.0
2017-Aug-16 02:59N 58°27' E 008°46'0 0.0
2017-Aug-16 02:30N 58°27' E 008°46'0 0.0
2017-Aug-16 02:00N 58°27' E 008°46'0 0.0
2017-Aug-16 01:29N 58°27' E 008°46'0 0.0
2017-Aug-16 01:00N 58°27' E 008°46'0 0.0
2017-Aug-16 00:30N 58°27' E 008°46'0 0.0
2017-Aug-16 00:00N 58°27' E 008°46'0 0.0
2017-Aug-15 23:30N 58°27' E 008°46'0 0.0
2017-Aug-15 23:00N 58°27' E 008°46'0 0.0
2017-Aug-15 22:30N 58°27' E 008°46'0 0.0
2017-Aug-15 21:59N 58°27' E 008°46'0 0.0
2017-Aug-15 21:29N 58°27' E 008°46'0 0.0
2017-Aug-15 21:00N 58°27' E 008°46'0 0.0
2017-Aug-15 20:30N 58°27' E 008°46'0 0.0
2017-Aug-15 20:00N 58°27' E 008°46'0 0.0
2017-Aug-15 19:29N 58°27' E 008°46'0 0.0
2017-Aug-15 18:59N 58°27' E 008°46'0 0.0
2017-Aug-15 18:30N 58°27' E 008°46'0 0.0
2017-Aug-15 18:00N 58°27' E 008°46'0 0.0
2017-Aug-15 17:29N 58°27' E 008°46'0 0.0
2017-Aug-15 17:00N 58°27' E 008°46'0 0.0
2017-Aug-15 16:30N 58°27' E 008°46'0 0.0
2017-Aug-15 16:00N 58°27' E 008°46'0 0.0
2017-Aug-15 15:29N 58°27' E 008°46'0 0.0
2017-Aug-15 14:59N 58°27' E 008°46'0 0.0
2017-Aug-15 14:23N 58°27' E 008°46'0 0.0
2017-Aug-15 13:59N 58°27' E 008°46'0 0.0
2017-Aug-15 13:30N 58°27' E 008°46'0 0.0
2017-Aug-15 12:59N 58°27' E 008°46'0 0.0
2017-Aug-15 12:30N 58°27' E 008°46'0 0.0
2017-Aug-15 12:00N 58°27' E 008°46'0 0.0
2017-Aug-15 11:30N 58°27' E 008°46'0 0.0
2017-Aug-15 10:59N 58°27' E 008°46'0 0.0
2017-Aug-15 10:30N 58°27' E 008°46'0 0.0
2017-Aug-15 09:59N 58°27' E 008°46'0 0.0
2017-Aug-15 09:30N 58°27' E 008°46'0 0.0
2017-Aug-15 09:00N 58°27' E 008°46'0 0.0
2017-Aug-15 08:30N 58°27' E 008°46'0 0.0
2017-Aug-15 08:00N 58°27' E 008°46'0 0.0
2017-Aug-15 07:23N 58°27' E 008°46'0 0.0
2017-Aug-15 07:00N 58°27' E 008°46'0 0.0
2017-Aug-15 06:30N 58°27' E 008°46'0 0.0
2017-Aug-15 06:00N 58°27' E 008°46'0 0.0
2017-Aug-15 05:29N 58°27' E 008°46'0 0.0
2017-Aug-15 05:00N 58°27' E 008°46'0 0.0
2017-Aug-15 04:30N 58°27' E 008°46'0 0.0
2017-Aug-15 04:00N 58°27' E 008°46'0 0.0
2017-Aug-15 03:29N 58°27' E 008°46'0 0.0
2017-Aug-15 03:00N 58°27' E 008°46'0 0.0
2017-Aug-15 02:29N 58°27' E 008°46'0 0.0
2017-Aug-15 02:00N 58°27' E 008°46'0 0.0
2017-Aug-15 01:30N 58°27' E 008°46'0 0.0
2017-Aug-15 01:00N 58°27' E 008°46'0 0.0
2017-Aug-15 00:30N 58°27' E 008°46'0 0.0
2017-Aug-15 00:00N 58°27' E 008°46'0 0.0
2017-Aug-14 23:30N 58°27' E 008°46'0 0.0
2017-Aug-14 23:00N 58°27' E 008°46'0 0.0
2017-Aug-14 22:30N 58°27' E 008°46'0 0.0
2017-Aug-14 22:00N 58°27' E 008°46'0 0.0
2017-Aug-14 21:29N 58°27' E 008°46'0 0.0
2017-Aug-14 21:00N 58°27' E 008°46'0 0.0
2017-Aug-14 20:29N 58°27' E 008°46'0 0.0
2017-Aug-14 19:59N 58°27' E 008°46'0 0.0
2017-Aug-14 19:30N 58°27' E 008°46'0 0.0
2017-Aug-14 19:00N 58°27' E 008°46'0 0.0
2017-Aug-14 18:29N 58°27' E 008°46'0 0.0
2017-Aug-14 17:59N 58°27' E 008°46'0 0.0
2017-Aug-14 17:29N 58°27' E 008°46'0 0.0
2017-Aug-14 17:00N 58°27' E 008°46'0 0.0
2017-Aug-14 16:30N 58°27' E 008°46'0 0.0
2017-Aug-14 16:00N 58°27' E 008°46'0 0.0
2017-Aug-14 15:30N 58°27' E 008°46'0 0.0
2017-Aug-14 13:05N 58°27' E 008°46'0 0.0
2017-Aug-14 13:00N 58°27' E 008°46'0 0.0
2017-Aug-14 12:29N 58°27' E 008°46'0 0.3
2017-Aug-14 12:00N 58°28' E 008°46'1 1.7
2017-Aug-14 11:30N 58°27' E 008°47'2 3.8
2017-Aug-14 11:00N 58°25' E 008°47'2 4.6
2017-Aug-14 10:30N 58°23' E 008°44'2 4.0
2017-Aug-14 10:00N 58°21' E 008°43'3 5.1
2017-Aug-14 09:30N 58°19' E 008°41'4 7.4
2017-Aug-14 09:00N 58°16' E 008°36'4 7.2
2017-Aug-14 08:30N 58°14' E 008°31'4 7.4
2017-Aug-14 08:00N 58°11' E 008°26'4 7.3
2017-Aug-14 07:30N 58°09' E 008°21'3 6.9
2017-Aug-14 07:00N 58°06' E 008°16'3 6.5
2017-Aug-14 06:30N 58°04' E 008°11'3 6.5
2017-Aug-14 06:00N 58°05' E 008°05'4 7.7
2017-Aug-14 05:30N 58°08' E 008°00'1 2.2
2017-Aug-14 04:59N 58°09' E 007°59'0 0.0
2017-Aug-14 04:28N 58°09' E 007°59'0 0.0
2017-Aug-14 03:58N 58°09' E 007°59'0 0.0
2017-Aug-14 03:29N 58°09' E 007°59'0 0.0
2017-Aug-14 02:59N 58°09' E 007°59'0 0.0
2017-Aug-14 02:28N 58°09' E 007°59'0 0.0
2017-Aug-14 01:59N 58°09' E 007°59'0 0.0
2017-Aug-14 01:29N 58°09' E 007°59'0 0.0
2017-Aug-14 00:59N 58°09' E 007°59'0 0.0
2017-Aug-14 00:29N 58°09' E 007°59'0 0.0
2017-Aug-13 23:59N 58°09' E 007°59'0 0.0
2017-Aug-13 23:29N 58°09' E 007°59'0 0.0
2017-Aug-13 22:58N 58°09' E 007°59'0 0.0
2017-Aug-13 22:29N 58°09' E 007°59'0 0.0
2017-Aug-13 21:59N 58°09' E 007°59'0 0.0
2017-Aug-13 21:29N 58°09' E 007°59'0 0.0
2017-Aug-13 20:59N 58°09' E 007°59'0 0.0
2017-Aug-13 20:29N 58°09' E 007°59'0 0.0
2017-Aug-13 19:55N 58°09' E 007°59'0 0.0
2017-Aug-13 19:28N 58°09' E 007°59'0 0.0
2017-Aug-13 18:59N 58°09' E 007°59'0 0.0
2017-Aug-13 18:28N 58°09' E 007°59'0 0.0
2017-Aug-13 17:59N 58°09' E 007°59'0 0.0
2017-Aug-13 17:29N 58°09' E 007°59'0 0.0
2017-Aug-13 16:59N 58°09' E 007°59'0 0.0
2017-Aug-13 16:29N 58°09' E 007°59'0 0.0
2017-Aug-13 15:59N 58°09' E 007°59'0 0.0
2017-Aug-13 15:29N 58°09' E 007°59'0 0.0
2017-Aug-13 14:59N 58°09' E 007°59'0 0.0
2017-Aug-13 14:29N 58°09' E 007°59'0 0.0
2017-Aug-13 13:59N 58°09' E 007°59'0 0.0
2017-Aug-13 13:29N 58°09' E 007°59'0 0.0
2017-Aug-13 12:59N 58°09' E 007°59'0 0.0
2017-Aug-13 12:29N 58°09' E 007°59'0 0.0
2017-Aug-13 11:58N 58°09' E 007°59'0 0.0
2017-Aug-13 11:29N 58°09' E 007°59'0 0.0
2017-Aug-13 10:58N 58°09' E 007°59'0 0.0
2017-Aug-13 10:28N 58°09' E 007°59'0 0.0
2017-Aug-13 09:59N 58°09' E 007°59'0 0.0
2017-Aug-13 09:29N 58°09' E 007°59'0 0.0
2017-Aug-13 08:59N 58°09' E 007°59'0 0.0
2017-Aug-13 08:29N 58°09' E 007°59'0 0.0
2017-Aug-13 07:59N 58°09' E 007°59'0 0.0
2017-Aug-13 07:29N 58°09' E 007°59'0 0.0
2017-Aug-13 06:59N 58°09' E 007°59'0 0.0
2017-Aug-13 06:28N 58°09' E 007°59'0 0.0
2017-Aug-13 05:59N 58°09' E 007°59'0 0.0
2017-Aug-13 05:29N 58°09' E 007°59'0 0.0
2017-Aug-13 04:59N 58°09' E 007°59'0 0.0
2017-Aug-13 04:29N 58°09' E 007°59'0 0.0
2017-Aug-13 03:59N 58°09' E 007°59'0 0.0
2017-Aug-13 03:29N 58°09' E 007°59'0 0.0
2017-Aug-13 02:59N 58°09' E 007°59'0 0.0
2017-Aug-13 02:29N 58°09' E 007°59'0 0.0
2017-Aug-13 01:59N 58°09' E 007°59'0 0.0
2017-Aug-13 01:28N 58°09' E 007°59'0 0.0
2017-Aug-13 00:59N 58°09' E 007°59'0 0.0
2017-Aug-13 00:29N 58°09' E 007°59'0 0.0
2017-Aug-12 23:59N 58°09' E 007°59'0 0.0
2017-Aug-12 23:29N 58°09' E 007°59'0 0.0
2017-Aug-12 22:58N 58°09' E 007°59'0 0.0
2017-Aug-12 22:29N 58°09' E 007°59'0 0.0
2017-Aug-12 21:59N 58°09' E 007°59'0 0.0
2017-Aug-12 21:29N 58°09' E 007°59'0 0.0
2017-Aug-12 20:58N 58°09' E 007°59'0 0.0
2017-Aug-12 20:28N 58°09' E 007°59'0 0.0
2017-Aug-12 19:59N 58°09' E 007°59'0 0.0
2017-Aug-12 19:25N 58°09' E 007°59'0 0.0
2017-Aug-12 18:59N 58°09' E 007°59'0 0.0
2017-Aug-12 18:29N 58°09' E 007°59'0 0.0
2017-Aug-12 17:59N 58°09' E 007°59'0 0.0
2017-Aug-12 17:28N 58°09' E 007°59'0 0.0
2017-Aug-12 16:58N 58°09' E 007°59'0 0.0
2017-Aug-12 16:28N 58°09' E 007°59'0 0.0
2017-Aug-12 15:58N 58°09' E 007°59'0 0.0
2017-Aug-12 15:28N 58°09' E 007°59'0 0.0
2017-Aug-12 14:58N 58°09' E 007°59'0 0.0
2017-Aug-12 14:29N 58°09' E 007°59'0 0.0
2017-Aug-12 13:59N 58°09' E 007°59'0 0.0
2017-Aug-12 13:29N 58°09' E 007°59'0 0.0
2017-Aug-12 12:59N 58°09' E 007°59'0 0.0
2017-Aug-12 12:29N 58°09' E 007°59'0 0.0
2017-Aug-12 11:59N 58°09' E 007°59'0 0.0
2017-Aug-12 11:29N 58°09' E 007°59'0 0.0
2017-Aug-12 10:58N 58°09' E 007°59'0 0.0
2017-Aug-12 10:29N 58°09' E 007°59'0 0.0
2017-Aug-12 09:58N 58°09' E 007°59'0 0.0
2017-Aug-12 09:29N 58°09' E 007°59'0 0.0
2017-Aug-12 08:59N 58°09' E 007°59'0 0.0
2017-Aug-12 08:29N 58°09' E 007°59'0 0.0
2017-Aug-12 07:58N 58°09' E 007°59'0 0.0
2017-Aug-12 07:29N 58°09' E 007°59'0 0.0
2017-Aug-12 06:59N 58°09' E 007°59'0 0.0
2017-Aug-12 06:28N 58°09' E 007°59'0 0.0
2017-Aug-12 05:58N 58°09' E 007°59'0 0.0
2017-Aug-12 05:28N 58°09' E 007°59'0 0.0
2017-Aug-12 04:58N 58°09' E 007°59'0 0.0
2017-Aug-12 04:29N 58°09' E 007°59'0 0.0
2017-Aug-12 03:58N 58°09' E 007°59'0 0.0
2017-Aug-12 03:28N 58°09' E 007°59'0 0.0
2017-Aug-12 02:58N 58°09' E 007°59'0 0.0
2017-Aug-12 02:28N 58°09' E 007°59'0 0.0
2017-Aug-12 01:59N 58°09' E 007°59'0 0.0
2017-Aug-12 01:29N 58°09' E 007°59'0 0.0
2017-Aug-12 00:58N 58°09' E 007°59'0 0.0
2017-Aug-12 00:29N 58°09' E 007°59'0 0.0
2017-Aug-11 23:59N 58°09' E 007°59'0 0.0
2017-Aug-11 23:28N 58°09' E 007°59'0 0.0
2017-Aug-11 22:59N 58°09' E 007°59'0 0.0
2017-Aug-11 22:29N 58°09' E 007°59'0 0.0
2017-Aug-11 21:59N 58°09' E 007°59'0 0.0
2017-Aug-11 21:29N 58°09' E 007°59'0 0.0
2017-Aug-11 20:59N 58°09' E 007°59'0 0.0
2017-Aug-11 20:28N 58°09' E 007°59'0 0.0
2017-Aug-11 19:56N 58°09' E 007°59'0 0.0
2017-Aug-11 19:29N 58°09' E 007°59'0 0.0
2017-Aug-11 18:59N 58°09' E 007°59'0 0.0
2017-Aug-11 18:29N 58°09' E 007°59'0 0.0
2017-Aug-11 18:00N 58°09' E 007°59'2 4.1
2017-Aug-11 17:30N 58°07' E 008°01'4 7.2
2017-Aug-11 17:00N 58°04' E 007°57'2 4.9
2017-Aug-11 16:30N 58°02' E 007°54'2 4.1
2017-Aug-11 16:00N 57°60' E 007°53'2 3.2
2017-Aug-11 15:30N 57°58' E 007°51'2 3.6
2017-Aug-11 15:00N 57°58' E 007°48'4 4.4
2017-Aug-11 14:00N 57°57' E 007°40'2 4.6
2017-Aug-11 13:30N 57°57' E 007°35'2 5.0
2017-Aug-11 13:00N 57°57' E 007°31'3 5.4
2017-Aug-11 12:30N 57°57' E 007°26'3 5.2
2017-Aug-11 12:00N 57°57' E 007°21'3 5.9
2017-Aug-11 11:30N 57°58' E 007°15'3 5.9
2017-Aug-11 11:00N 57°58' E 007°10'3 5.2
2017-Aug-11 10:30N 57°58' E 007°05'2 4.9
2017-Aug-11 10:00N 57°58' E 007°00'3 6.2
2017-Aug-11 09:30N 57°60' E 006°55'4 7.2
2017-Aug-11 09:00N 58°03' E 006°51'3 6.0
2017-Aug-11 08:30N 58°05' E 006°49'0 0.4
2017-Aug-11 07:58N 58°06' E 006°48'0 0.0
2017-Aug-11 07:28N 58°06' E 006°48'0 0.0
2017-Aug-11 06:59N 58°06' E 006°48'0 0.0
2017-Aug-11 06:29N 58°06' E 006°48'0 0.0
2017-Aug-11 05:59N 58°06' E 006°48'0 0.0
2017-Aug-11 05:29N 58°06' E 006°48'0 0.0
2017-Aug-11 04:58N 58°06' E 006°48'0 0.0
2017-Aug-11 04:29N 58°06' E 006°48'0 0.0
2017-Aug-11 03:59N 58°06' E 006°48'0 0.0
2017-Aug-11 03:29N 58°06' E 006°48'0 0.0
2017-Aug-11 02:55N 58°06' E 006°48'0 0.0
2017-Aug-11 02:28N 58°06' E 006°48'0 0.0
2017-Aug-11 01:56N 58°06' E 006°48'0 0.0
2017-Aug-11 01:28N 58°06' E 006°48'0 0.0
2017-Aug-11 00:59N 58°06' E 006°48'0 0.0
2017-Aug-11 00:26N 58°06' E 006°48'0 0.0
2017-Aug-10 23:59N 58°06' E 006°48'0 0.0
2017-Aug-10 23:29N 58°06' E 006°48'0 0.0
2017-Aug-10 22:59N 58°06' E 006°48'0 0.0
2017-Aug-10 22:29N 58°06' E 006°48'0 0.0
2017-Aug-10 21:59N 58°06' E 006°48'0 0.0
2017-Aug-10 21:29N 58°06' E 006°48'0 0.0
2017-Aug-10 20:59N 58°06' E 006°48'  
Track history (hours):
 
Tides and Currents Weather Stations Pressure Air Temp Water Temp Dewpoint Dewpoint Depression Visibility Wind Speed Wind Dir Waves Ship Positions

Svanen (Norway)

Ship's website: http://www.svanen.no/english/english.php1

Last reported at 2017-Aug-20 20:29 UTC. Time now 2017-Aug-20 20:41 UTC.
Position N 59°54' E 010°42'.

Length 27 m; draft 2.8 m.

Type: Sailing vessel. MMSI: 259173000.

Date/timePositionNaut miles runAvg speedWind from/ knotsBaromVisibWave heightAir tempDewpointWater temp
2017-Aug-20 20:29N 59°54' E 010°42'0 0.0
2017-Aug-20 19:58N 59°54' E 010°42'0 0.0
2017-Aug-20 19:28N 59°54' E 010°42'0 0.0
2017-Aug-20 18:58N 59°54' E 010°42'0 0.0
2017-Aug-20 18:29N 59°54' E 010°42'0 0.0
2017-Aug-20 17:56N 59°54' E 010°42'0 0.0
2017-Aug-20 17:29N 59°54' E 010°42'0 0.0
2017-Aug-20 16:59N 59°54' E 010°42'0 0.0
2017-Aug-20 16:29N 59°54' E 010°42'0 0.0
2017-Aug-20 15:58N 59°54' E 010°42'0 0.0
2017-Aug-20 15:29N 59°54' E 010°42'0 0.0
2017-Aug-20 14:59N 59°54' E 010°42'0 0.0
2017-Aug-20 14:29N 59°54' E 010°42'0 0.0
2017-Aug-20 13:58N 59°54' E 010°42'0 0.0
2017-Aug-20 13:29N 59°54' E 010°42'0 0.0
2017-Aug-20 12:59N 59°54' E 010°42'0 0.0
2017-Aug-20 12:29N 59°54' E 010°42'0 0.0
2017-Aug-20 11:58N 59°54' E 010°42'0 0.0
2017-Aug-20 11:29N 59°54' E 010°42'0 0.0
2017-Aug-20 10:59N 59°54' E 010°42'0 0.0
2017-Aug-20 10:28N 59°54' E 010°42'0 0.0
2017-Aug-20 09:59N 59°54' E 010°42'0 0.0
2017-Aug-20 09:29N 59°54' E 010°42'0 0.0
2017-Aug-20 08:59N 59°54' E 010°42'0 0.0
2017-Aug-20 08:28N 59°54' E 010°42'0 0.0
2017-Aug-20 07:59N 59°54' E 010°42'0 0.0
2017-Aug-20 07:28N 59°54' E 010°42'0 0.0
2017-Aug-20 06:59N 59°54' E 010°42'0 0.0
2017-Aug-20 06:29N 59°54' E 010°42'0 0.0
2017-Aug-20 05:59N 59°54' E 010°42'0 0.0
2017-Aug-20 05:29N 59°54' E 010°42'0 0.0
2017-Aug-20 04:58N 59°54' E 010°42'0 0.0
2017-Aug-20 04:29N 59°54' E 010°42'0 0.0
2017-Aug-20 03:56N 59°54' E 010°42'0 0.0
2017-Aug-20 03:28N 59°54' E 010°42'0 0.0
2017-Aug-20 02:59N 59°54' E 010°42'0 0.0
2017-Aug-20 02:29N 59°54' E 010°42'0 0.0
2017-Aug-20 01:59N 59°54' E 010°42'0 0.0
2017-Aug-20 01:29N 59°54' E 010°42'0 0.0
2017-Aug-20 00:59N 59°54' E 010°42'0 0.0
2017-Aug-20 00:29N 59°54' E 010°42'0 0.0
2017-Aug-19 23:59N 59°54' E 010°42'0 0.0
2017-Aug-19 23:28N 59°54' E 010°42'0 0.0
2017-Aug-19 22:59N 59°54' E 010°42'0 0.0
2017-Aug-19 22:28N 59°54' E 010°42'0 0.0
2017-Aug-19 21:59N 59°54' E 010°42'0 0.0
2017-Aug-19 21:29N 59°54' E 010°42'0 0.0
2017-Aug-19 20:59N 59°54' E 010°42'0 0.0
2017-Aug-19 20:29N 59°54' E 010°42'0 0.0
2017-Aug-19 19:58N 59°54' E 010°42'0 0.0
2017-Aug-19 19:28N 59°54' E 010°42'0 0.0
2017-Aug-19 18:59N 59°54' E 010°42'0 0.0
2017-Aug-19 18:29N 59°54' E 010°42'0 0.0
2017-Aug-19 17:59N 59°54' E 010°42'0 0.0
2017-Aug-19 17:28N 59°54' E 010°42'0 0.0
2017-Aug-19 16:59N 59°54' E 010°42'0 0.0
2017-Aug-19 16:30N 59°54' E 010°42'2 4.5
2017-Aug-19 16:00N 59°52' E 010°39'4 7.8
2017-Aug-19 15:30N 59°49' E 010°36'4 8.2
2017-Aug-19 15:00N 59°45' E 010°35'5 5.4
2017-Aug-19 14:00N 59°40' E 010°36'3 6.4
2017-Aug-19 13:30N 59°37' E 010°38'3 6.5
2017-Aug-19 13:00N 59°33' E 010°38'3 5.8
2017-Aug-19 12:30N 59°31' E 010°37'3 5.2
2017-Aug-19 12:00N 59°28' E 010°36'2 4.7
2017-Aug-19 11:30N 59°26' E 010°33'2 4.2
2017-Aug-19 11:00N 59°24' E 010°32'2 4.5
2017-Aug-19 10:30N 59°22' E 010°33'2 4.6
2017-Aug-19 10:00N 59°20' E 010°34'2 3.5
2017-Aug-19 09:30N 59°18' E 010°33'2 4.3
2017-Aug-19 09:00N 59°16' E 010°32'3 6.1
2017-Aug-19 08:30N 59°13' E 010°30'4 7.4
2017-Aug-19 08:00N 59°10' E 010°28'2 4.8
2017-Aug-19 07:30N 59°10' E 010°23'3 6.6
2017-Aug-19 07:00N 59°06' E 010°22'4 7.7
2017-Aug-19 06:30N 59°03' E 010°21'4 7.5
2017-Aug-19 06:00N 59°01' E 010°15'4 6.8
2017-Aug-19 05:29N 58°60' E 010°08'3 5.8
2017-Aug-19 04:59N 58°60' E 010°02'0 0.0
2017-Aug-19 04:29N 58°60' E 010°02'0 0.0
2017-Aug-19 03:59N 58°60' E 010°02'0 0.0
2017-Aug-19 03:29N 58°60' E 010°02'0 0.0
2017-Aug-19 02:59N 58°60' E 010°02'0 0.0
2017-Aug-19 02:23N 58°60' E 010°02'0 0.0
2017-Aug-19 01:59N 58°60' E 010°02'0 0.0
2017-Aug-19 01:29N 58°60' E 010°02'0 0.0
2017-Aug-19 00:56N 58°60' E 010°02'0 0.0
2017-Aug-19 00:28N 58°60' E 010°02'0 0.0
2017-Aug-18 23:59N 58°60' E 010°02'0 0.0
2017-Aug-18 23:26N 58°60' E 010°02'0 0.0
2017-Aug-18 22:59N 58°60' E 010°02'0 0.0
2017-Aug-18 22:23N 58°60' E 010°02'0 0.0
2017-Aug-18 21:59N 58°60' E 010°02'0 0.0
2017-Aug-18 21:28N 58°60' E 010°02'0 0.0
2017-Aug-18 20:56N 58°60' E 010°02'0 0.0
2017-Aug-18 20:29N 58°60' E 010°02'0 0.0
2017-Aug-18 19:59N 58°60' E 010°02'0 0.0
2017-Aug-18 19:28N 58°60' E 010°02'0 0.0
2017-Aug-18 18:56N 58°60' E 010°02'0 0.0
2017-Aug-18 18:29N 58°60' E 010°02'0 0.0
2017-Aug-18 17:50N 58°60' E 010°02'0 0.0
2017-Aug-18 17:19N 58°60' E 010°02'0 0.0
2017-Aug-18 16:58N 58°60' E 010°02'0 0.0
2017-Aug-18 16:26N 58°60' E 010°02'0 0.0
2017-Aug-18 15:53N 58°60' E 010°02'0 0.0
2017-Aug-18 15:29N 58°60' E 010°02'1 1.8
2017-Aug-18 14:56N 58°59' E 010°03'2 4.5
2017-Aug-18 14:30N 58°57' E 010°03'4 3.3
2017-Aug-18 13:22N 58°55' E 009°57'1 3.2
2017-Aug-18 12:54N 58°54' E 009°54'3 6.1
2017-Aug-18 12:25N 58°53' E 009°49'17 6.5
2017-Aug-18 09:50N 58°45' E 009°21'2 6.0
2017-Aug-18 09:26N 58°44' E 009°17'1 0.1
2017-Aug-17 16:51N 58°43' E 009°15'2 6.4
2017-Aug-17 16:30N 58°41' E 009°15'3 6.9
2017-Aug-17 15:59N 58°39' E 009°09'2 5.0
2017-Aug-17 15:30N 58°38' E 009°05'3 6.8
2017-Aug-17 15:00N 58°35' E 009°02'4 7.2
2017-Aug-17 14:30N 58°32' E 008°58'3 5.4
2017-Aug-17 14:00N 58°30' E 008°54'3 5.1
2017-Aug-17 13:30N 58°29' E 008°50'2 4.4
2017-Aug-17 12:59N 58°27' E 008°46'0 0.3
2017-Aug-17 12:29N 58°27' E 008°46'0 0.0
2017-Aug-17 12:00N 58°27' E 008°46'0 0.0
2017-Aug-17 11:30N 58°27' E 008°46'0 0.0
2017-Aug-17 11:00N 58°27' E 008°46'0 0.0
2017-Aug-17 10:30N 58°27' E 008°46'0 0.0
2017-Aug-17 09:59N 58°27' E 008°46'0 0.0
2017-Aug-17 09:29N 58°27' E 008°46'0 0.0
2017-Aug-17 09:00N 58°27' E 008°46'0 0.0
2017-Aug-17 08:30N 58°27' E 008°46'0 0.0
2017-Aug-17 08:00N 58°27' E 008°46'0 0.0
2017-Aug-17 07:30N 58°27' E 008°46'0 0.0
2017-Aug-17 07:00N 58°27' E 008°46'0 0.0
2017-Aug-17 06:29N 58°27' E 008°46'0 0.0
2017-Aug-17 05:59N 58°27' E 008°46'0 0.0
2017-Aug-17 05:30N 58°27' E 008°46'0 0.0
2017-Aug-17 05:00N 58°27' E 008°46'0 0.0
2017-Aug-17 04:30N 58°27' E 008°46'0 0.0
2017-Aug-17 04:00N 58°27' E 008°46'0 0.0
2017-Aug-17 03:29N 58°27' E 008°46'0 0.0
2017-Aug-17 03:00N 58°27' E 008°46'0 0.0
2017-Aug-17 02:30N 58°27' E 008°46'0 0.0
2017-Aug-17 01:59N 58°27' E 008°46'0 0.0
2017-Aug-17 01:29N 58°27' E 008°46'0 0.0
2017-Aug-17 01:00N 58°27' E 008°46'0 0.0
2017-Aug-17 00:30N 58°27' E 008°46'0 0.0
2017-Aug-16 23:59N 58°27' E 008°46'0 0.0
2017-Aug-16 23:29N 58°27' E 008°46'0 0.0
2017-Aug-16 23:00N 58°27' E 008°46'0 0.0
2017-Aug-16 22:30N 58°27' E 008°46'0 0.0
2017-Aug-16 21:59N 58°27' E 008°46'0 0.0
2017-Aug-16 21:29N 58°27' E 008°46'0 0.0
2017-Aug-16 20:59N 58°27' E 008°46'0 0.0
2017-Aug-16 20:29N 58°27' E 008°46'0 0.0
2017-Aug-16 19:59N 58°27' E 008°46'0 0.0
2017-Aug-16 19:30N 58°27' E 008°46'0 0.0
2017-Aug-16 19:00N 58°27' E 008°46'0 0.0
2017-Aug-16 18:30N 58°27' E 008°46'0 0.0
2017-Aug-16 18:00N 58°27' E 008°46'0 0.0
2017-Aug-16 17:30N 58°27' E 008°46'0 0.0
2017-Aug-16 16:59N 58°27' E 008°46'0 0.0
2017-Aug-16 16:30N 58°27' E 008°46'0 0.0
2017-Aug-16 16:00N 58°27' E 008°46'0 0.0
2017-Aug-16 15:29N 58°27' E 008°46'0 0.0
2017-Aug-16 15:00N 58°27' E 008°46'0 0.0
2017-Aug-16 14:29N 58°27' E 008°46'0 0.0
2017-Aug-16 14:00N 58°27' E 008°46'0 0.0
2017-Aug-16 13:29N 58°27' E 008°46'0 0.0
2017-Aug-16 13:00N 58°27' E 008°46'0 0.0
2017-Aug-16 12:29N 58°27' E 008°46'0 0.0
2017-Aug-16 11:59N 58°27' E 008°46'0 0.0
2017-Aug-16 11:30N 58°27' E 008°46'0 0.0
2017-Aug-16 11:00N 58°27' E 008°46'0 0.0
2017-Aug-16 10:30N 58°27' E 008°46'0 0.0
2017-Aug-16 10:00N 58°27' E 008°46'0 0.0
2017-Aug-16 09:30N 58°27' E 008°46'0 0.0
2017-Aug-16 08:59N 58°27' E 008°46'0 0.0
2017-Aug-16 08:30N 58°27' E 008°46'0 0.0
2017-Aug-16 07:59N 58°27' E 008°46'0 0.0
2017-Aug-16 07:29N 58°27' E 008°46'0 0.0
2017-Aug-16 07:00N 58°27' E 008°46'0 0.0
2017-Aug-16 06:29N 58°27' E 008°46'0 0.0
2017-Aug-16 05:59N 58°27' E 008°46'0 0.0
2017-Aug-16 05:30N 58°27' E 008°46'0 0.0
2017-Aug-16 05:00N 58°27' E 008°46'0 0.0
2017-Aug-16 04:30N 58°27' E 008°46'0 0.0
2017-Aug-16 04:00N 58°27' E 008°46'0 0.0
2017-Aug-16 03:30N 58°27' E 008°46'0 0.0
2017-Aug-16 02:59N 58°27' E 008°46'0 0.0
2017-Aug-16 02:30N 58°27' E 008°46'0 0.0
2017-Aug-16 02:00N 58°27' E 008°46'0 0.0
2017-Aug-16 01:29N 58°27' E 008°46'0 0.0
2017-Aug-16 01:00N 58°27' E 008°46'0 0.0
2017-Aug-16 00:30N 58°27' E 008°46'0 0.0
2017-Aug-16 00:00N 58°27' E 008°46'0 0.0
2017-Aug-15 23:30N 58°27' E 008°46'0 0.0
2017-Aug-15 23:00N 58°27' E 008°46'0 0.0
2017-Aug-15 22:30N 58°27' E 008°46'0 0.0
2017-Aug-15 21:59N 58°27' E 008°46'0 0.0
2017-Aug-15 21:29N 58°27' E 008°46'0 0.0
2017-Aug-15 21:00N 58°27' E 008°46'0 0.0
2017-Aug-15 20:30N 58°27' E 008°46'0 0.0
2017-Aug-15 20:00N 58°27' E 008°46'0 0.0
2017-Aug-15 19:29N 58°27' E 008°46'0 0.0
2017-Aug-15 18:59N 58°27' E 008°46'0 0.0
2017-Aug-15 18:30N 58°27' E 008°46'0 0.0
2017-Aug-15 18:00N 58°27' E 008°46'0 0.0
2017-Aug-15 17:29N 58°27' E 008°46'0 0.0
2017-Aug-15 17:00N 58°27' E 008°46'0 0.0
2017-Aug-15 16:30N 58°27' E 008°46'0 0.0
2017-Aug-15 16:00N 58°27' E 008°46'0 0.0
2017-Aug-15 15:29N 58°27' E 008°46'0 0.0
2017-Aug-15 14:59N 58°27' E 008°46'0 0.0
2017-Aug-15 14:23N 58°27' E 008°46'0 0.0
2017-Aug-15 13:59N 58°27' E 008°46'0 0.0
2017-Aug-15 13:30N 58°27' E 008°46'0 0.0
2017-Aug-15 12:59N 58°27' E 008°46'0 0.0
2017-Aug-15 12:30N 58°27' E 008°46'0 0.0
2017-Aug-15 12:00N 58°27' E 008°46'0 0.0
2017-Aug-15 11:30N 58°27' E 008°46'0 0.0
2017-Aug-15 10:59N 58°27' E 008°46'0 0.0
2017-Aug-15 10:30N 58°27' E 008°46'0 0.0
2017-Aug-15 09:59N 58°27' E 008°46'0 0.0
2017-Aug-15 09:30N 58°27' E 008°46'0 0.0
2017-Aug-15 09:00N 58°27' E 008°46'0 0.0
2017-Aug-15 08:30N 58°27' E 008°46'0 0.0
2017-Aug-15 08:00N 58°27' E 008°46'0 0.0
2017-Aug-15 07:23N 58°27' E 008°46'0 0.0
2017-Aug-15 07:00N 58°27' E 008°46'0 0.0
2017-Aug-15 06:30N 58°27' E 008°46'0 0.0
2017-Aug-15 06:00N 58°27' E 008°46'0 0.0
2017-Aug-15 05:29N 58°27' E 008°46'0 0.0
2017-Aug-15 05:00N 58°27' E 008°46'0 0.0
2017-Aug-15 04:30N 58°27' E 008°46'0 0.0
2017-Aug-15 04:00N 58°27' E 008°46'0 0.0
2017-Aug-15 03:29N 58°27' E 008°46'0 0.0
2017-Aug-15 03:00N 58°27' E 008°46'0 0.0
2017-Aug-15 02:29N 58°27' E 008°46'0 0.0
2017-Aug-15 02:00N 58°27' E 008°46'0 0.0
2017-Aug-15 01:30N 58°27' E 008°46'0 0.0
2017-Aug-15 01:00N 58°27' E 008°46'0 0.0
2017-Aug-15 00:30N 58°27' E 008°46'0 0.0
2017-Aug-15 00:00N 58°27' E 008°46'0 0.0
2017-Aug-14 23:30N 58°27' E 008°46'0 0.0
2017-Aug-14 23:00N 58°27' E 008°46'0 0.0
2017-Aug-14 22:30N 58°27' E 008°46'0 0.0
2017-Aug-14 22:00N 58°27' E 008°46'0 0.0
2017-Aug-14 21:29N 58°27' E 008°46'0 0.0
2017-Aug-14 21:00N 58°27' E 008°46'0 0.0
2017-Aug-14 20:29N 58°27' E 008°46'0 0.0
2017-Aug-14 19:59N 58°27' E 008°46'0 0.0
2017-Aug-14 19:30N 58°27' E 008°46'0 0.0
2017-Aug-14 19:00N 58°27' E 008°46'0 0.0
2017-Aug-14 18:29N 58°27' E 008°46'0 0.0
2017-Aug-14 17:59N 58°27' E 008°46'0 0.0
2017-Aug-14 17:29N 58°27' E 008°46'0 0.0
2017-Aug-14 17:00N 58°27' E 008°46'0 0.0
2017-Aug-14 16:30N 58°27' E 008°46'0 0.0
2017-Aug-14 16:00N 58°27' E 008°46'0 0.0
2017-Aug-14 15:30N 58°27' E 008°46'0 0.0
2017-Aug-14 13:05N 58°27' E 008°46'0 0.0
2017-Aug-14 13:00N 58°27' E 008°46'0 0.0
2017-Aug-14 12:29N 58°27' E 008°46'0 0.3
2017-Aug-14 12:00N 58°28' E 008°46'1 1.7
2017-Aug-14 11:30N 58°27' E 008°47'2 3.8
2017-Aug-14 11:00N 58°25' E 008°47'2 4.6
2017-Aug-14 10:30N 58°23' E 008°44'2 4.0
2017-Aug-14 10:00N 58°21' E 008°43'3 5.1
2017-Aug-14 09:30N 58°19' E 008°41'4 7.4
2017-Aug-14 09:00N 58°16' E 008°36'4 7.2
2017-Aug-14 08:30N 58°14' E 008°31'4 7.4
2017-Aug-14 08:00N 58°11' E 008°26'4 7.3
2017-Aug-14 07:30N 58°09' E 008°21'3 6.9
2017-Aug-14 07:00N 58°06' E 008°16'3 6.5
2017-Aug-14 06:30N 58°04' E 008°11'3 6.5
2017-Aug-14 06:00N 58°05' E 008°05'4 7.7
2017-Aug-14 05:30N 58°08' E 008°00'1 2.2
2017-Aug-14 04:59N 58°09' E 007°59'0 0.0
2017-Aug-14 04:28N 58°09' E 007°59'0 0.0
2017-Aug-14 03:58N 58°09' E 007°59'0 0.0
2017-Aug-14 03:29N 58°09' E 007°59'0 0.0
2017-Aug-14 02:59N 58°09' E 007°59'0 0.0
2017-Aug-14 02:28N 58°09' E 007°59'0 0.0
2017-Aug-14 01:59N 58°09' E 007°59'0 0.0
2017-Aug-14 01:29N 58°09' E 007°59'0 0.0
2017-Aug-14 00:59N 58°09' E 007°59'0 0.0
2017-Aug-14 00:29N 58°09' E 007°59'0 0.0
2017-Aug-13 23:59N 58°09' E 007°59'0 0.0
2017-Aug-13 23:29N 58°09' E 007°59'0 0.0
2017-Aug-13 22:58N 58°09' E 007°59'0 0.0
2017-Aug-13 22:29N 58°09' E 007°59'0 0.0
2017-Aug-13 21:59N 58°09' E 007°59'0 0.0
2017-Aug-13 21:29N 58°09' E 007°59'0 0.0
2017-Aug-13 20:59N 58°09' E 007°59'0 0.0
2017-Aug-13 20:29N 58°09' E 007°59'0 0.0
2017-Aug-13 19:55N 58°09' E 007°59'0 0.0
2017-Aug-13 19:28N 58°09' E 007°59'0 0.0
2017-Aug-13 18:59N 58°09' E 007°59'0 0.0
2017-Aug-13 18:28N 58°09' E 007°59'0 0.0
2017-Aug-13 17:59N 58°09' E 007°59'0 0.0
2017-Aug-13 17:29N 58°09' E 007°59'0 0.0
2017-Aug-13 16:59N 58°09' E 007°59'0 0.0
2017-Aug-13 16:29N 58°09' E 007°59'0 0.0
2017-Aug-13 15:59N 58°09' E 007°59'0 0.0
2017-Aug-13 15:29N 58°09' E 007°59'0 0.0
2017-Aug-13 14:59N 58°09' E 007°59'0 0.0
2017-Aug-13 14:29N 58°09' E 007°59'0 0.0
2017-Aug-13 13:59N 58°09' E 007°59'0 0.0
2017-Aug-13 13:29N 58°09' E 007°59'0 0.0
2017-Aug-13 12:59N 58°09' E 007°59'0 0.0
2017-Aug-13 12:29N 58°09' E 007°59'0 0.0
2017-Aug-13 11:58N 58°09' E 007°59'0 0.0
2017-Aug-13 11:29N 58°09' E 007°59'0 0.0
2017-Aug-13 10:58N 58°09' E 007°59'0 0.0
2017-Aug-13 10:28N 58°09' E 007°59'0 0.0
2017-Aug-13 09:59N 58°09' E 007°59'0 0.0
2017-Aug-13 09:29N 58°09' E 007°59'0 0.0
2017-Aug-13 08:59N 58°09' E 007°59'0 0.0
2017-Aug-13 08:29N 58°09' E 007°59'0 0.0
2017-Aug-13 07:59N 58°09' E 007°59'0 0.0
2017-Aug-13 07:29N 58°09' E 007°59'0 0.0
2017-Aug-13 06:59N 58°09' E 007°59'0 0.0
2017-Aug-13 06:28N 58°09' E 007°59'0 0.0
2017-Aug-13 05:59N 58°09' E 007°59'0 0.0
2017-Aug-13 05:29N 58°09' E 007°59'0 0.0
2017-Aug-13 04:59N 58°09' E 007°59'0 0.0
2017-Aug-13 04:29N 58°09' E 007°59'0 0.0
2017-Aug-13 03:59N 58°09' E 007°59'0 0.0
2017-Aug-13 03:29N 58°09' E 007°59'0 0.0
2017-Aug-13 02:59N 58°09' E 007°59'0 0.0
2017-Aug-13 02:29N 58°09' E 007°59'0 0.0
2017-Aug-13 01:59N 58°09' E 007°59'0 0.0
2017-Aug-13 01:28N 58°09' E 007°59'0 0.0
2017-Aug-13 00:59N 58°09' E 007°59'0 0.0
2017-Aug-13 00:29N 58°09' E 007°59'0 0.0
2017-Aug-12 23:59N 58°09' E 007°59'0 0.0
2017-Aug-12 23:29N 58°09' E 007°59'0 0.0
2017-Aug-12 22:58N 58°09' E 007°59'0 0.0
2017-Aug-12 22:29N 58°09' E 007°59'0 0.0
2017-Aug-12 21:59N 58°09' E 007°59'0 0.0
2017-Aug-12 21:29N 58°09' E 007°59'0 0.0
2017-Aug-12 20:58N 58°09' E 007°59'0 0.0
2017-Aug-12 20:28N 58°09' E 007°59'0 0.0
2017-Aug-12 19:59N 58°09' E 007°59'0 0.0
2017-Aug-12 19:25N 58°09' E 007°59'0 0.0
2017-Aug-12 18:59N 58°09' E 007°59'0 0.0
2017-Aug-12 18:29N 58°09' E 007°59'0 0.0
2017-Aug-12 17:59N 58°09' E 007°59'0 0.0
2017-Aug-12 17:28N 58°09' E 007°59'0 0.0
2017-Aug-12 16:58N 58°09' E 007°59'0 0.0
2017-Aug-12 16:28N 58°09' E 007°59'0 0.0
2017-Aug-12 15:58N 58°09' E 007°59'0 0.0
2017-Aug-12 15:28N 58°09' E 007°59'0 0.0
2017-Aug-12 14:58N 58°09' E 007°59'0 0.0
2017-Aug-12 14:29N 58°09' E 007°59'0 0.0
2017-Aug-12 13:59N 58°09' E 007°59'0 0.0
2017-Aug-12 13:29N 58°09' E 007°59'0 0.0
2017-Aug-12 12:59N 58°09' E 007°59'0 0.0
2017-Aug-12 12:29N 58°09' E 007°59'0 0.0
2017-Aug-12 11:59N 58°09' E 007°59'0 0.0
2017-Aug-12 11:29N 58°09' E 007°59'0 0.0
2017-Aug-12 10:58N 58°09' E 007°59'0 0.0
2017-Aug-12 10:29N 58°09' E 007°59'0 0.0
2017-Aug-12 09:58N 58°09' E 007°59'0 0.0
2017-Aug-12 09:29N 58°09' E 007°59'0 0.0
2017-Aug-12 08:59N 58°09' E 007°59'0 0.0
2017-Aug-12 08:29N 58°09' E 007°59'0 0.0
2017-Aug-12 07:58N 58°09' E 007°59'0 0.0
2017-Aug-12 07:29N 58°09' E 007°59'0 0.0
2017-Aug-12 06:59N 58°09' E 007°59'0 0.0
2017-Aug-12 06:28N 58°09' E 007°59'0 0.0
2017-Aug-12 05:58N 58°09' E 007°59'0 0.0
2017-Aug-12 05:28N 58°09' E 007°59'0 0.0
2017-Aug-12 04:58N 58°09' E 007°59'0 0.0
2017-Aug-12 04:29N 58°09' E 007°59'0 0.0
2017-Aug-12 03:58N 58°09' E 007°59'0 0.0
2017-Aug-12 03:28N 58°09' E 007°59'0 0.0
2017-Aug-12 02:58N 58°09' E 007°59'0 0.0
2017-Aug-12 02:28N 58°09' E 007°59'0 0.0
2017-Aug-12 01:59N 58°09' E 007°59'0 0.0
2017-Aug-12 01:29N 58°09' E 007°59'0 0.0
2017-Aug-12 00:58N 58°09' E 007°59'0 0.0
2017-Aug-12 00:29N 58°09' E 007°59'0 0.0
2017-Aug-11 23:59N 58°09' E 007°59'0 0.0
2017-Aug-11 23:28N 58°09' E 007°59'0 0.0
2017-Aug-11 22:59N 58°09' E 007°59'0 0.0
2017-Aug-11 22:29N 58°09' E 007°59'0 0.0
2017-Aug-11 21:59N 58°09' E 007°59'0 0.0
2017-Aug-11 21:29N 58°09' E 007°59'0 0.0
2017-Aug-11 20:59N 58°09' E 007°59'0 0.0
2017-Aug-11 20:28N 58°09' E 007°59'0 0.0
2017-Aug-11 19:56N 58°09' E 007°59'0 0.0
2017-Aug-11 19:29N 58°09' E 007°59'0 0.0
2017-Aug-11 18:59N 58°09' E 007°59'0 0.0
2017-Aug-11 18:29N 58°09' E 007°59'0 0.0
2017-Aug-11 18:00N 58°09' E 007°59'2 4.1
2017-Aug-11 17:30N 58°07' E 008°01'4 7.2
2017-Aug-11 17:00N 58°04' E 007°57'2 4.9
2017-Aug-11 16:30N 58°02' E 007°54'2 4.1
2017-Aug-11 16:00N 57°60' E 007°53'2 3.2
2017-Aug-11 15:30N 57°58' E 007°51'2 3.6
2017-Aug-11 15:00N 57°58' E 007°48'4 4.4
2017-Aug-11 14:00N 57°57' E 007°40'2 4.6
2017-Aug-11 13:30N 57°57' E 007°35'2 5.0
2017-Aug-11 13:00N 57°57' E 007°31'3 5.4
2017-Aug-11 12:30N 57°57' E 007°26'3 5.2
2017-Aug-11 12:00N 57°57' E 007°21'3 5.9
2017-Aug-11 11:30N 57°58' E 007°15'3 5.9
2017-Aug-11 11:00N 57°58' E 007°10'3 5.2
2017-Aug-11 10:30N 57°58' E 007°05'2 4.9
2017-Aug-11 10:00N 57°58' E 007°00'3 6.2
2017-Aug-11 09:30N 57°60' E 006°55'4 7.2
2017-Aug-11 09:00N 58°03' E 006°51'3 6.0
2017-Aug-11 08:30N 58°05' E 006°49'0 0.4
2017-Aug-11 07:58N 58°06' E 006°48'0 0.0
2017-Aug-11 07:28N 58°06' E 006°48'0 0.0
2017-Aug-11 06:59N 58°06' E 006°48'0 0.0
2017-Aug-11 06:29N 58°06' E 006°48'0 0.0
2017-Aug-11 05:59N 58°06' E 006°48'0 0.0
2017-Aug-11 05:29N 58°06' E 006°48'0 0.0
2017-Aug-11 04:58N 58°06' E 006°48'0 0.0
2017-Aug-11 04:29N 58°06' E 006°48'0 0.0
2017-Aug-11 03:59N 58°06' E 006°48'0 0.0
2017-Aug-11 03:29N 58°06' E 006°48'0 0.0
2017-Aug-11 02:55N 58°06' E 006°48'0 0.0
2017-Aug-11 02:28N 58°06' E 006°48'0 0.0
2017-Aug-11 01:56N 58°06' E 006°48'0 0.0
2017-Aug-11 01:28N 58°06' E 006°48'0 0.0
2017-Aug-11 00:59N 58°06' E 006°48'0 0.0
2017-Aug-11 00:26N 58°06' E 006°48'0 0.0
2017-Aug-10 23:59N 58°06' E 006°48'0 0.0
2017-Aug-10 23:29N 58°06' E 006°48'0 0.0
2017-Aug-10 22:59N 58°06' E 006°48'0 0.0
2017-Aug-10 22:29N 58°06' E 006°48'0 0.0
2017-Aug-10 21:59N 58°06' E 006°48'0 0.0
2017-Aug-10 21:29N 58°06' E 006°48'0 0.0
2017-Aug-10 20:59N 58°06' E 006°48'  

Dump ship's entire track history